createdAt,value
2019-04-26T00:00:42.837Z,"   6.45"
2019-04-26T00:01:42.886Z,"   6.58"
2019-04-26T00:02:42.849Z,"   6.37"
2019-04-26T00:03:43.588Z,"   6.41"
2019-04-26T00:04:42.830Z,"   6.42"
2019-04-26T00:05:42.835Z,"   6.38"
2019-04-26T00:06:42.839Z,"   6.49"
2019-04-26T00:07:42.901Z,"   6.47"
2019-04-26T00:08:42.823Z,"   6.46"
2019-04-26T00:09:42.814Z,"   6.21"
2019-04-26T00:10:42.830Z,"   6.48"
2019-04-26T00:11:42.822Z,"   6.36"
2019-04-26T00:12:42.827Z,"   6.50"
2019-04-26T00:13:42.825Z,"   6.61"
2019-04-26T00:14:42.830Z,"   6.48"
2019-04-26T00:15:42.799Z,"   6.44"
2019-04-26T00:16:42.906Z,"   6.32"
2019-04-26T00:17:42.837Z,"   6.25"
2019-04-26T00:18:42.808Z,"   6.28"
2019-04-26T00:19:42.810Z,"   6.46"
2019-04-26T00:20:42.802Z,"   6.47"
2019-04-26T00:21:42.833Z,"   6.67"
2019-04-26T00:22:42.809Z,"   6.65"
2019-04-26T00:23:42.842Z,"   6.63"
2019-04-26T00:24:42.938Z,"   6.51"
2019-04-26T00:25:43.222Z,"   6.52"
2019-04-26T00:26:42.891Z,"   6.44"
2019-04-26T00:27:42.843Z,"   6.36"
2019-04-26T00:28:42.825Z,"   6.39"
2019-04-26T00:29:42.802Z,"   6.28"
2019-04-26T00:30:42.769Z,"   6.46"
2019-04-26T00:31:42.827Z,"   6.31"
2019-04-26T00:32:42.809Z,"   6.32"
2019-04-26T00:33:42.803Z,"   6.36"
2019-04-26T00:34:42.787Z,"   6.60"
2019-04-26T00:35:47.859Z,"   6.64"
2019-04-26T00:36:42.814Z,"   6.63"
2019-04-26T00:37:42.793Z,"   6.42"
2019-04-26T00:38:42.786Z,"   6.41"
2019-04-26T00:39:42.769Z,"   6.37"
2019-04-26T00:40:42.775Z,"   6.43"
2019-04-26T00:41:43.010Z,"   6.27"
2019-04-26T00:42:42.770Z,"   6.38"
2019-04-26T00:43:42.784Z,"   6.33"
2019-04-26T00:44:42.784Z,"   6.46"
2019-04-26T00:45:42.808Z,"   6.47"
2019-04-26T00:46:42.926Z,"   6.25"
2019-04-26T00:47:42.886Z,"   6.33"
2019-04-26T00:48:42.773Z,"   6.29"
2019-04-26T00:49:43.883Z,"   6.37"
2019-04-26T00:50:42.833Z,"   6.19"
2019-04-26T00:51:42.994Z,"   6.52"
2019-04-26T00:52:42.800Z,"   6.69"
2019-04-26T00:53:42.785Z,"   6.41"
2019-04-26T00:54:42.778Z,"   6.32"
2019-04-26T00:55:42.783Z,"   6.40"
2019-04-26T00:56:42.785Z,"   6.30"
2019-04-26T00:57:42.761Z,"   6.29"
2019-04-26T00:58:42.755Z,"   6.32"
2019-04-26T00:59:42.769Z,"   6.40"
2019-04-26T01:00:42.779Z,"   6.57"
2019-04-26T01:01:42.777Z,"   6.42"
2019-04-26T01:02:42.761Z,"   6.66"
2019-04-26T01:03:42.750Z,"   6.56"
2019-04-26T01:04:42.746Z,"   6.48"
2019-04-26T01:05:42.761Z,"   6.44"
2019-04-26T01:06:42.743Z,"   6.33"
2019-04-26T01:07:42.733Z,"   6.31"
2019-04-26T01:08:42.810Z,"   6.42"
2019-04-26T01:09:42.986Z,"   6.60"
2019-04-26T01:10:42.726Z,"   6.53"
2019-04-26T01:11:42.744Z,"   6.41"
2019-04-26T01:12:42.741Z,"   6.43"
2019-04-26T01:13:42.738Z,"   6.36"
2019-04-26T01:14:42.738Z,"   6.43"
2019-04-26T01:15:42.730Z,"   6.36"
2019-04-26T01:16:42.730Z,"   6.47"
2019-04-26T01:17:42.742Z,"   6.37"
2019-04-26T01:18:42.744Z,"   6.36"
2019-04-26T01:19:42.737Z,"   6.31"
2019-04-26T01:20:42.761Z,"   6.19"
2019-04-26T01:21:42.757Z,"   6.40"
2019-04-26T01:22:42.725Z,"   6.25"
2019-04-26T01:23:42.724Z,"   6.42"
2019-04-26T01:24:42.768Z,"   6.43"
2019-04-26T01:25:42.763Z,"   6.43"
2019-04-26T01:26:42.761Z,"   6.32"
2019-04-26T01:27:42.730Z,"   6.17"
2019-04-26T01:28:42.729Z,"   6.42"
2019-04-26T01:29:42.750Z,"   6.31"
2019-04-26T01:30:43.342Z,"   6.50"
2019-04-26T01:31:42.742Z,"   6.65"
2019-04-26T01:32:42.785Z,"   6.52"
2019-04-26T01:33:44.604Z,"   6.44"
2019-04-26T01:34:42.714Z,"   6.51"
2019-04-26T01:35:42.695Z,"   6.38"
2019-04-26T01:36:42.705Z,"   6.39"
2019-04-26T01:37:43.070Z,"   6.70"
2019-04-26T01:38:42.732Z,"   6.51"
2019-04-26T01:39:42.729Z,"   6.52"
2019-04-26T01:40:42.682Z,"   6.67"
2019-04-26T01:41:42.694Z,"   6.55"
2019-04-26T01:42:42.799Z,"   6.64"
2019-04-26T01:43:42.710Z,"   6.67"
2019-04-26T01:44:42.686Z,"   6.53"
2019-04-26T01:45:42.707Z,"   6.53"
2019-04-26T01:46:42.726Z,"   6.50"
2019-04-26T01:47:42.706Z,"   6.51"
2019-04-26T01:48:42.707Z,"   6.45"
2019-04-26T01:49:42.738Z,"   6.54"
2019-04-26T01:50:42.757Z,"   6.72"
2019-04-26T01:51:42.857Z,"   6.62"
2019-04-26T01:52:43.834Z,"   6.65"
2019-04-26T01:53:45.350Z,"   6.51"
2019-04-26T01:54:42.701Z,"   6.40"
2019-04-26T01:55:42.702Z,"   6.34"
2019-04-26T01:56:42.680Z,"   6.49"
2019-04-26T01:57:42.677Z,"   6.36"
2019-04-26T01:58:42.693Z,"   6.32"
2019-04-26T01:59:42.661Z,"   6.62"
2019-04-26T02:00:42.670Z,"   6.71"
2019-04-26T02:01:42.689Z,"   6.48"
2019-04-26T02:02:42.705Z,"   6.56"
2019-04-26T02:03:42.734Z,"   6.59"
2019-04-26T02:04:42.703Z,"   6.49"
2019-04-26T02:05:42.662Z,"   6.39"
2019-04-26T02:06:42.683Z,"   6.34"
2019-04-26T02:07:42.687Z,"   6.65"
2019-04-26T02:08:42.717Z,"   6.76"
2019-04-26T02:09:42.696Z,"   6.72"
2019-04-26T02:10:42.697Z,"   6.64"
2019-04-26T02:11:42.649Z,"   6.65"
2019-04-26T02:12:42.697Z,"   6.52"
2019-04-26T02:13:43.120Z,"   6.39"
2019-04-26T02:14:42.669Z,"   6.41"
2019-04-26T02:15:42.667Z,"   6.57"
2019-04-26T02:16:42.737Z,"   6.65"
2019-04-26T02:17:42.659Z,"   6.60"
2019-04-26T02:18:42.629Z,"   6.61"
2019-04-26T02:19:42.641Z,"   6.57"
2019-04-26T02:20:42.631Z,"   6.68"
2019-04-26T02:21:42.638Z,"   6.59"
2019-04-26T02:22:42.650Z,"   6.57"
2019-04-26T02:23:42.632Z,"   6.59"
2019-04-26T02:24:42.682Z,"   6.57"
2019-04-26T02:25:42.684Z,"   6.46"
2019-04-26T02:26:42.630Z,"   6.46"
2019-04-26T02:27:42.672Z,"   6.24"
2019-04-26T02:28:42.637Z,"   6.33"
2019-04-26T02:29:42.653Z,"   6.34"
2019-04-26T02:30:42.635Z,"   6.25"
2019-04-26T02:31:42.787Z,"   6.40"
2019-04-26T02:32:42.624Z,"   6.62"
2019-04-26T02:33:42.639Z,"   6.58"
2019-04-26T02:34:42.694Z,"   6.64"
2019-04-26T02:35:42.735Z,"   6.66"
2019-04-26T02:36:55.177Z,"   6.62"
2019-04-26T02:37:42.641Z,"   6.50"
2019-04-26T02:38:42.646Z,"   6.50"
2019-04-26T02:39:42.669Z,"   6.51"
2019-04-26T02:40:42.623Z,"   6.53"
2019-04-26T02:41:42.686Z,"   6.51"
2019-04-26T02:42:42.642Z,"   6.53"
2019-04-26T02:43:42.637Z,"   6.45"
2019-04-26T02:44:42.603Z,"   6.41"
2019-04-26T02:45:42.634Z,"   6.44"
2019-04-26T02:46:42.640Z,"   6.46"
2019-04-26T02:47:42.723Z,"   6.46"
2019-04-26T02:48:42.681Z,"   6.47"
2019-04-26T02:49:42.599Z,"   6.45"
2019-04-26T02:50:42.587Z,"   6.51"
2019-04-26T02:51:42.605Z,"   6.50"
2019-04-26T02:52:42.678Z,"   6.49"
2019-04-26T02:53:42.899Z,"   6.46"
2019-04-26T02:54:42.597Z,"   6.54"
2019-04-26T02:55:42.795Z,"   6.44"
2019-04-26T02:56:42.574Z,"   6.58"
2019-04-26T02:57:42.614Z,"   6.45"
2019-04-26T02:58:42.677Z,"   6.38"
2019-04-26T02:59:42.633Z,"   6.34"
2019-04-26T03:00:42.748Z,"   6.57"
2019-04-26T03:01:42.583Z,"   6.57"
2019-04-26T03:02:42.589Z,"   6.56"
2019-04-26T03:03:42.576Z,"   6.43"
2019-04-26T03:04:42.631Z,"   6.40"
2019-04-26T03:05:42.615Z,"   6.47"
2019-04-26T03:06:42.839Z,"   6.59"
2019-04-26T03:07:42.790Z,"   6.67"
2019-04-26T03:08:42.799Z,"   6.64"
2019-04-26T03:09:43.181Z,"   6.55"
2019-04-26T03:10:43.432Z,"   6.47"
2019-04-26T03:11:43.386Z,"   6.44"
2019-04-26T03:12:43.182Z,"   6.41"
2019-04-26T03:13:43.707Z,"   6.61"
2019-04-26T03:14:42.593Z,"   6.79"
2019-04-26T03:15:42.722Z,"   6.60"
2019-04-26T03:16:43.010Z,"   6.72"
2019-04-26T03:17:43.104Z,"   6.78"
2019-04-26T03:18:42.935Z,"   6.80"
2019-04-26T03:19:43.120Z,"   6.82"
2019-04-26T03:20:42.545Z,"   6.74"
2019-04-26T03:21:43.762Z,"   6.77"
2019-04-26T03:22:42.775Z,"   6.70"
2019-04-26T03:23:57.095Z,"   6.57"
2019-04-26T03:24:42.673Z,"   6.68"
2019-04-26T03:25:42.701Z,"   6.73"
2019-04-26T03:26:43.337Z,"   6.75"
2019-04-26T03:27:43.511Z,"   6.78"
2019-04-26T03:28:43.705Z,"   6.79"
2019-04-26T03:29:43.808Z,"   6.75"
2019-04-26T03:30:49.036Z,"   6.69"
2019-04-26T03:31:52.328Z,"   6.62"
2019-04-26T03:32:50.526Z,"   6.71"
2019-04-26T03:33:48.706Z,"   6.90"
2019-04-26T03:34:48.973Z,"   6.87"
2019-04-26T03:35:52.360Z,"   6.85"
2019-04-26T03:36:44.214Z,"   6.88"
2019-04-26T03:37:44.333Z,"   6.89"
2019-04-26T03:38:43.529Z,"   6.90"
2019-04-26T03:39:44.403Z,"   6.94"
2019-04-26T03:40:44.265Z,"   6.94"
2019-04-26T03:41:44.009Z,"   6.94"
2019-04-26T03:42:44.063Z,"   6.81"
2019-04-26T03:43:43.192Z,"   6.93"
2019-04-26T03:44:43.835Z,"   6.93"
2019-04-26T03:45:44.499Z,"   6.96"
2019-04-26T03:46:43.672Z,"   6.97"
2019-04-26T03:47:44.526Z,"   6.98"
2019-04-26T03:48:43.647Z,"   6.96"
2019-04-26T03:49:44.203Z,"   7.02"
2019-04-26T03:50:42.896Z,"   6.96"
2019-04-26T03:51:43.040Z,"   6.95"
2019-04-26T03:52:43.672Z,"   7.01"
2019-04-26T03:53:44.004Z,"   7.02"
2019-04-26T03:54:42.826Z,"   7.00"
2019-04-26T03:55:43.706Z,"   7.02"
2019-04-26T03:56:43.557Z,"   7.04"
2019-04-26T03:57:44.228Z,"   6.95"
2019-04-26T03:58:43.612Z,"   7.00"
2019-04-26T03:59:43.758Z,"   6.97"
2019-04-26T04:00:43.371Z,"   6.94"
2019-04-26T04:01:44.105Z,"   6.98"
2019-04-26T04:02:43.573Z,"   6.94"
2019-04-26T04:03:43.939Z,"   6.92"
2019-04-26T04:04:43.274Z,"   6.87"
2019-04-26T04:05:44.220Z,"   6.80"
2019-04-26T04:06:58.124Z,"   6.76"
2019-04-26T04:07:48.099Z,"   6.83"
2019-04-26T04:08:43.859Z,"   6.76"
2019-04-26T04:09:42.864Z,"   6.65"
2019-04-26T04:10:44.098Z,"   6.71"
2019-04-26T04:11:44.452Z,"   6.71"
2019-04-26T04:12:44.432Z,"   6.71"
2019-04-26T04:13:45.645Z,"   6.71"
2019-04-26T04:14:44.062Z,"   7.09"
2019-04-26T04:15:44.112Z,"   7.19"
2019-04-26T04:16:43.627Z,"   7.20"
2019-04-26T04:17:45.384Z,"   7.09"
2019-04-26T04:18:43.849Z,"   7.20"
2019-04-26T04:19:43.869Z,"   7.09"
2019-04-26T04:20:43.143Z,"   6.92"
2019-04-26T04:21:43.154Z,"   6.97"
2019-04-26T04:22:43.944Z,"   6.90"
2019-04-26T04:23:43.532Z,"   7.07"
2019-04-26T04:24:43.386Z,"   6.99"
2019-04-26T04:25:44.263Z,"   6.94"
2019-04-26T04:26:43.418Z,"   7.07"
2019-04-26T04:27:44.045Z,"   7.13"
2019-04-26T04:28:43.930Z,"   7.38"
2019-04-26T04:29:48.548Z,"   7.33"
2019-04-26T04:30:43.539Z,"   7.20"
2019-04-26T04:31:44.186Z,"   7.49"
2019-04-26T04:32:43.827Z,"   7.50"
2019-04-26T04:33:43.657Z,"   7.47"
2019-04-26T04:34:43.984Z,"   7.35"
2019-04-26T04:35:44.264Z,"   7.30"
2019-04-26T04:36:44.067Z,"   7.35"
2019-04-26T04:38:01.897Z,"   7.37"
2019-04-26T04:38:44.045Z,"   7.56"
2019-04-26T04:39:44.266Z,"   7.57"
2019-04-26T04:40:42.681Z,"   7.74"
2019-04-26T04:41:42.975Z,"   7.70"
2019-04-26T04:42:43.651Z,"   7.63"
2019-04-26T04:43:44.568Z,"   7.69"
2019-04-26T04:44:44.353Z,"   7.82"
2019-04-26T04:45:43.552Z,"   7.72"
2019-04-26T04:46:43.829Z,"   7.88"
2019-04-26T04:47:45.106Z,"   7.69"
2019-04-26T04:48:44.325Z,"   7.90"
2019-04-26T04:49:43.052Z,"   8.06"
2019-04-26T04:50:43.378Z,"   8.10"
2019-04-26T04:51:44.172Z,"   8.10"
2019-04-26T04:52:43.230Z,"   8.11"
2019-04-26T04:53:43.436Z,"   8.16"
2019-04-26T04:54:43.233Z,"   8.11"
2019-04-26T04:55:44.436Z,"   8.03"
2019-04-26T04:56:43.632Z,"   8.25"
2019-04-26T04:57:43.862Z,"   8.17"
2019-04-26T04:58:43.218Z,"   8.19"
2019-04-26T04:59:42.447Z,"   8.15"
2019-04-26T05:00:43.043Z,"   8.26"
2019-04-26T05:01:42.857Z,"   8.27"
2019-04-26T05:02:43.450Z,"   8.36"
2019-04-26T05:03:43.552Z,"   8.34"
2019-04-26T05:04:42.744Z,"   8.55"
2019-04-26T05:05:43.516Z,"   8.50"
2019-04-26T05:06:42.832Z,"   8.48"
2019-04-26T05:07:43.846Z,"   8.36"
2019-04-26T05:08:42.895Z,"   8.33"
2019-04-26T05:09:43.903Z,"   8.60"
2019-04-26T05:10:44.183Z,"   8.68"
2019-04-26T05:11:43.358Z,"   8.57"
2019-04-26T05:12:42.407Z,"   8.57"
2019-04-26T05:13:42.418Z,"   8.80"
2019-04-26T05:14:42.430Z,"   8.70"
2019-04-26T05:15:42.393Z,"   8.73"
2019-04-26T05:16:42.411Z,"   8.92"
2019-04-26T05:17:42.393Z,"   8.81"
2019-04-26T05:18:42.413Z,"   8.90"
2019-04-26T05:19:42.402Z,"   8.77"
2019-04-26T05:20:42.418Z,"   8.80"
2019-04-26T05:21:42.399Z,"   8.80"
2019-04-26T05:22:42.442Z,"   8.74"
2019-04-26T05:23:42.411Z,"   8.74"
2019-04-26T05:24:42.442Z,"   8.78"
2019-04-26T05:25:42.397Z,"   8.91"
2019-04-26T05:26:42.554Z,"   8.84"
2019-04-26T05:27:42.576Z,"   8.93"
2019-04-26T05:28:42.465Z,"   8.88"
2019-04-26T05:29:42.441Z,"   8.85"
2019-04-26T05:30:42.407Z,"   8.92"
2019-04-26T05:31:42.397Z,"   9.04"
2019-04-26T05:32:42.390Z,"   8.88"
2019-04-26T05:33:42.379Z,"   8.93"
2019-04-26T05:34:42.401Z,"   8.91"
2019-04-26T05:35:42.410Z,"   8.92"
2019-04-26T05:36:42.397Z,"   8.92"
2019-04-26T05:37:42.430Z,"   8.93"
2019-04-26T05:38:43.298Z,"   8.94"
2019-04-26T05:39:42.412Z,"   8.92"
2019-04-26T05:40:42.393Z,"   8.91"
2019-04-26T05:41:42.399Z,"   9.02"
2019-04-26T05:42:42.382Z,"   8.83"
2019-04-26T05:43:42.414Z,"   8.77"
2019-04-26T05:44:42.367Z,"   9.01"
2019-04-26T05:45:42.412Z,"   8.91"
2019-04-26T05:46:42.431Z,"   8.92"
2019-04-26T05:47:42.413Z,"   8.81"
2019-04-26T05:48:42.658Z,"   8.78"
2019-04-26T05:49:43.310Z,"   8.99"
2019-04-26T05:50:42.354Z,"   8.95"
2019-04-26T05:51:42.360Z,"   9.02"
2019-04-26T05:52:42.375Z,"   9.04"
2019-04-26T05:53:42.420Z,"   8.93"
2019-04-26T05:54:42.397Z,"   8.83"
2019-04-26T05:55:42.387Z,"   8.77"
2019-04-26T05:56:42.367Z,"   9.01"
2019-04-26T05:57:42.358Z,"   8.99"
2019-04-26T05:58:42.409Z,"   9.01"
2019-04-26T05:59:42.397Z,"   8.98"
2019-04-26T06:00:42.334Z,"   8.77"
2019-04-26T06:01:42.343Z,"   8.82"
2019-04-26T06:02:42.378Z,"   8.80"
2019-04-26T06:03:42.595Z,"   8.81"
2019-04-26T06:04:42.354Z,"   8.87"
2019-04-26T06:05:42.403Z,"   8.78"
2019-04-26T06:06:42.333Z,"   8.95"
2019-04-26T06:07:42.387Z,"   9.00"
2019-04-26T06:08:42.353Z,"   8.84"
2019-04-26T06:09:42.407Z,"   8.89"
2019-04-26T06:10:43.407Z,"   8.78"
2019-04-26T06:11:42.349Z,"   8.94"
2019-04-26T06:12:42.365Z,"   8.94"
2019-04-26T06:13:42.424Z,"   9.07"
2019-04-26T06:14:42.338Z,"   8.99"
2019-04-26T06:15:42.329Z,"   8.93"
2019-04-26T06:16:42.426Z,"   8.84"
2019-04-26T06:17:42.378Z,"   8.91"
2019-04-26T06:18:42.366Z,"   8.91"
2019-04-26T06:19:42.336Z,"   9.10"
2019-04-26T06:20:42.390Z,"   9.04"
2019-04-26T06:21:42.433Z,"   9.21"
2019-04-26T06:22:42.380Z,"   9.19"
2019-04-26T06:23:42.386Z,"   9.12"
2019-04-26T06:24:42.432Z,"   9.20"
2019-04-26T06:25:42.369Z,"   9.20"
2019-04-26T06:26:42.462Z,"   9.30"
2019-04-26T06:27:42.345Z,"   9.24"
2019-04-26T06:28:42.337Z,"   9.22"
2019-04-26T06:29:42.305Z,"   9.09"
2019-04-26T06:30:45.665Z,"   9.01"
2019-04-26T06:31:42.329Z,"   9.03"
2019-04-26T06:32:42.422Z,"   8.89"
2019-04-26T06:33:42.331Z,"   9.00"
2019-04-26T06:34:42.324Z,"   9.11"
2019-04-26T06:35:42.322Z,"   9.00"
2019-04-26T06:36:42.495Z,"   9.03"
2019-04-26T06:37:42.341Z,"   9.10"
2019-04-26T06:38:43.984Z,"   9.23"
2019-04-26T06:39:42.314Z,"   9.25"
2019-04-26T06:40:42.336Z,"   9.21"
2019-04-26T06:41:42.338Z,"   9.23"
2019-04-26T06:42:42.289Z,"   9.06"
2019-04-26T06:43:42.545Z,"   9.14"
2019-04-26T06:44:42.329Z,"   8.96"
2019-04-26T06:45:42.294Z,"   8.94"
2019-04-26T06:46:42.265Z,"   8.93"
2019-04-26T06:47:42.309Z,"   8.81"
2019-04-26T06:48:42.346Z,"   8.96"
2019-04-26T06:49:42.291Z,"   9.00"
2019-04-26T06:50:42.402Z,"   9.08"
2019-04-26T06:51:42.375Z,"   9.15"
2019-04-26T06:52:42.465Z,"   8.98"
2019-04-26T06:53:42.315Z,"   8.98"
2019-04-26T06:54:42.381Z,"   8.91"
2019-04-26T06:55:42.283Z,"   8.95"
2019-04-26T06:56:42.311Z,"   8.99"
2019-04-26T06:57:42.270Z,"   8.93"
2019-04-26T06:58:42.340Z,"   8.98"
2019-04-26T06:59:42.311Z,"   8.88"
2019-04-26T07:00:42.318Z,"   8.83"
2019-04-26T07:01:42.314Z,"   8.83"
2019-04-26T07:02:42.329Z,"   9.05"
2019-04-26T07:03:42.410Z,"   9.00"
2019-04-26T07:04:42.312Z,"   9.11"
2019-04-26T07:05:42.398Z,"   9.07"
2019-04-26T07:06:42.314Z,"   9.04"
2019-04-26T07:07:42.281Z,"   9.18"
2019-04-26T07:08:42.291Z,"   9.12"
2019-04-26T07:09:42.260Z,"   9.10"
2019-04-26T07:10:42.282Z,"   9.24"
2019-04-26T07:11:42.281Z,"   9.19"
2019-04-26T07:12:42.257Z,"   9.17"
2019-04-26T07:13:42.299Z,"   9.11"
2019-04-26T07:14:42.578Z,"   9.18"
2019-04-26T07:15:42.898Z,"   9.25"
2019-04-26T07:16:42.296Z,"   9.29"
2019-04-26T07:17:42.546Z,"   9.09"
2019-04-26T07:18:42.454Z,"   9.18"
2019-04-26T07:19:42.294Z,"   9.16"
2019-04-26T07:20:42.265Z,"   9.18"
2019-04-26T07:21:42.265Z,"   9.28"
2019-04-26T07:22:42.299Z,"   9.10"
2019-04-26T07:23:42.263Z,"   9.12"
2019-04-26T07:24:42.256Z,"   9.20"
2019-04-26T07:25:42.273Z,"   9.25"
2019-04-26T07:26:42.316Z,"   9.26"
2019-04-26T07:27:42.241Z,"   9.30"
2019-04-26T07:28:42.327Z,"   9.39"
2019-04-26T07:29:42.342Z,"   9.30"
2019-04-26T07:30:42.226Z,"   9.28"
2019-04-26T07:31:42.230Z,"   9.16"
2019-04-26T07:32:42.303Z,"   9.20"
2019-04-26T07:33:42.294Z,"   9.16"
2019-04-26T07:34:42.242Z,"   9.19"
2019-04-26T07:35:42.255Z,"   9.23"
2019-04-26T07:36:42.373Z,"   9.17"
2019-04-26T07:37:42.268Z,"   9.10"
2019-04-26T07:38:42.304Z,"   9.16"
2019-04-26T07:39:42.277Z,"   9.20"
2019-04-26T07:40:42.238Z,"   9.27"
2019-04-26T07:41:42.277Z,"   9.20"
2019-04-26T07:42:42.283Z,"   9.16"
2019-04-26T07:43:42.257Z,"   9.11"
2019-04-26T07:44:42.229Z,"   9.03"
2019-04-26T07:45:42.224Z,"   9.11"
2019-04-26T07:46:42.204Z,"   9.20"
2019-04-26T07:47:42.213Z,"   9.23"
2019-04-26T07:48:42.221Z,"   9.21"
2019-04-26T07:49:42.194Z,"   9.19"
2019-04-26T07:50:42.204Z,"   8.93"
2019-04-26T07:51:42.205Z,"   9.02"
2019-04-26T07:52:43.997Z,"   9.03"
2019-04-26T07:53:42.298Z,"   9.07"
2019-04-26T07:54:42.209Z,"   9.26"
2019-04-26T07:55:43.105Z,"   9.15"
2019-04-26T07:56:42.207Z,"   9.04"
2019-04-26T07:57:42.452Z,"   9.12"
2019-04-26T07:58:42.307Z,"   9.11"
2019-04-26T07:59:42.185Z,"   9.22"
2019-04-26T08:00:45.028Z,"   9.20"
2019-04-26T08:01:42.233Z,"   9.24"
2019-04-26T08:02:42.250Z,"   9.18"
2019-04-26T08:03:42.227Z,"   9.29"
2019-04-26T08:04:42.213Z,"   9.22"
2019-04-26T08:05:42.251Z,"   9.18"
2019-04-26T08:06:43.118Z,"   9.24"
2019-04-26T08:07:42.158Z,"   9.24"
2019-04-26T08:08:42.238Z,"   9.39"
2019-04-26T08:09:42.182Z,"   9.12"
2019-04-26T08:10:42.266Z,"   9.07"
2019-04-26T08:11:42.160Z,"   9.19"
2019-04-26T08:12:42.189Z,"   9.25"
2019-04-26T08:13:43.346Z,"   9.09"
2019-04-26T08:14:42.165Z,"   9.01"
2019-04-26T08:15:42.156Z,"   8.98"
2019-04-26T08:16:42.183Z,"   9.30"
2019-04-26T08:17:42.173Z,"   9.33"
2019-04-26T08:18:42.155Z,"   9.28"
2019-04-26T08:19:42.309Z,"   9.34"
2019-04-26T08:20:42.160Z,"   9.35"
2019-04-26T08:21:42.487Z,"   9.21"
2019-04-26T08:22:42.207Z,"   9.22"
2019-04-26T08:23:42.474Z,"   9.16"
2019-04-26T08:24:42.190Z,"   9.27"
2019-04-26T08:25:42.141Z,"   9.24"
2019-04-26T08:26:42.133Z,"   9.29"
2019-04-26T08:27:42.157Z,"   9.17"
2019-04-26T08:28:42.133Z,"   9.22"
2019-04-26T08:29:42.459Z,"   9.30"
2019-04-26T08:30:44.932Z,"   9.22"
2019-04-26T08:31:42.149Z,"   9.19"
2019-04-26T08:32:42.175Z,"   9.34"
2019-04-26T08:33:48.531Z,"   9.01"
2019-04-26T08:34:42.166Z,"   8.92"
2019-04-26T08:35:44.462Z,"   8.79"
2019-04-26T08:36:42.112Z,"   8.93"
2019-04-26T08:37:42.122Z,"   9.00"
2019-04-26T08:38:42.125Z,"   8.92"
2019-04-26T08:39:45.512Z,"   9.09"
2019-04-26T08:40:42.166Z,"   9.04"
2019-04-26T08:41:42.150Z,"   9.06"
2019-04-26T08:42:42.149Z,"   9.22"
2019-04-26T08:43:42.115Z,"   9.28"
2019-04-26T08:44:42.189Z,"   9.05"
2019-04-26T08:45:44.115Z,"   9.07"
2019-04-26T08:46:42.178Z,"   8.89"
2019-04-26T08:47:42.158Z,"   8.90"
2019-04-26T08:48:42.145Z,"   8.94"
2019-04-26T08:49:42.107Z,"   9.16"
2019-04-26T08:50:42.359Z,"   9.26"
2019-04-26T08:51:42.171Z,"   9.14"
2019-04-26T08:52:42.127Z,"   9.06"
2019-04-26T08:53:42.120Z,"   9.07"
2019-04-26T08:54:42.140Z,"   8.99"
2019-04-26T08:55:42.125Z,"   9.02"
2019-04-26T08:56:42.094Z,"   8.98"
2019-04-26T08:57:42.130Z,"   8.93"
2019-04-26T08:58:42.102Z,"   8.79"
2019-04-26T08:59:42.109Z,"   8.87"
2019-04-26T09:00:42.101Z,"   9.06"
2019-04-26T09:01:42.147Z,"   9.10"
2019-04-26T09:02:42.271Z,"   9.05"
2019-04-26T09:03:42.130Z,"   9.19"
2019-04-26T09:04:43.034Z,"   9.21"
2019-04-26T09:05:45.567Z,"   9.29"
2019-04-26T09:06:42.286Z,"   9.26"
2019-04-26T09:07:42.093Z,"   9.32"
2019-04-26T09:08:43.576Z,"   9.19"
2019-04-26T09:09:42.077Z,"   9.04"
2019-04-26T09:10:43.177Z,"   9.17"
2019-04-26T09:11:42.117Z,"   9.10"
2019-04-26T09:12:42.671Z,"   9.15"
2019-04-26T09:13:42.130Z,"   9.09"
2019-04-26T09:14:42.053Z,"   9.20"
2019-04-26T09:15:42.089Z,"   9.29"
2019-04-26T09:16:50.107Z,"   9.33"
2019-04-26T09:17:42.061Z,"   9.50"
2019-04-26T09:18:43.875Z,"   9.38"
2019-04-26T09:19:42.109Z,"   9.48"
2019-04-26T09:20:42.867Z,"   9.48"
2019-04-26T09:21:42.090Z,"   9.55"
2019-04-26T09:22:42.081Z,"   9.25"
2019-04-26T09:23:44.354Z,"   9.30"
2019-04-26T09:24:42.210Z,"   9.28"
2019-04-26T09:25:42.124Z,"   9.43"
2019-04-26T09:26:42.591Z,"   9.28"
2019-04-26T09:27:42.113Z,"   9.05"
2019-04-26T09:28:42.128Z,"   8.98"
2019-04-26T09:29:42.041Z,"   9.20"
2019-04-26T09:30:44.066Z,"   9.14"
2019-04-26T09:31:42.058Z,"   9.24"
2019-04-26T09:32:42.081Z,"   9.46"
2019-04-26T09:33:42.071Z,"   9.28"
2019-04-26T09:34:42.835Z,"   9.26"
2019-04-26T09:35:42.078Z,"   9.20"
2019-04-26T09:36:42.114Z,"   9.22"
2019-04-26T09:37:42.049Z,"   9.21"
2019-04-26T09:38:42.061Z,"   9.31"
2019-04-26T09:39:43.332Z,"   9.13"
2019-04-26T09:40:42.060Z,"   9.17"
2019-04-26T09:41:42.031Z,"   9.02"
2019-04-26T09:42:42.929Z,"   9.15"
2019-04-26T09:43:42.025Z,"   9.25"
2019-04-26T09:44:43.021Z,"   9.23"
2019-04-26T09:45:43.013Z,"   9.23"
2019-04-26T09:46:44.358Z,"   9.21"
2019-04-26T09:47:42.036Z,"   9.25"
2019-04-26T09:48:42.065Z,"   9.33"
2019-04-26T09:49:42.295Z,"   9.23"
2019-04-26T09:50:42.391Z,"   9.11"
2019-04-26T09:51:42.085Z,"   9.21"
2019-04-26T09:52:42.095Z,"   9.21"
2019-04-26T09:53:43.342Z,"   9.31"
2019-04-26T09:54:42.040Z,"   9.32"
2019-04-26T09:55:42.025Z,"   9.25"
2019-04-26T09:56:42.028Z,"   9.34"
2019-04-26T09:57:41.999Z,"   9.32"
2019-04-26T09:58:42.060Z,"   9.38"
2019-04-26T09:59:42.020Z,"   9.41"
2019-04-26T10:00:44.070Z,"   9.39"
2019-04-26T10:01:42.006Z,"   9.41"
2019-04-26T10:02:42.049Z,"   9.50"
2019-04-26T10:03:42.096Z,"   9.35"
2019-04-26T10:04:42.023Z,"   9.40"
2019-04-26T10:05:42.039Z,"   9.37"
2019-04-26T10:06:42.178Z,"   9.35"
2019-04-26T10:07:42.057Z,"   9.47"
2019-04-26T10:08:43.416Z,"   9.50"
2019-04-26T10:09:42.072Z,"   9.52"
2019-04-26T10:12:42.009Z,"   9.53"
2019-04-26T10:13:42.014Z,"   9.48"
2019-04-26T10:14:41.997Z,"   9.55"
2019-04-26T10:15:42.033Z,"   9.62"
2019-04-26T10:16:42.343Z,"   9.52"
2019-04-26T10:17:41.979Z,"   9.58"
2019-04-26T10:18:41.978Z,"   9.74"
2019-04-26T10:19:42.004Z,"   9.76"
2019-04-26T10:20:42.274Z,"   9.87"
2019-04-26T10:21:42.008Z,"   9.87"
2019-04-26T10:22:42.089Z,"   9.95"
2019-04-26T10:23:41.948Z,"   9.85"
2019-04-26T10:24:41.994Z,"   9.80"
2019-04-26T10:25:42.021Z,"   9.95"
2019-04-26T10:26:41.994Z,"   9.92"
2019-04-26T10:27:42.570Z,"   9.72"
2019-04-26T10:28:42.088Z,"   9.98"
2019-04-26T10:29:41.969Z,"   9.77"
2019-04-26T10:30:43.986Z,"   9.75"
2019-04-26T10:31:42.098Z,"   9.71"
2019-04-26T10:32:41.978Z,"   9.58"
2019-04-26T10:33:41.970Z,"   9.64"
2019-04-26T10:34:42.736Z,"   9.67"
2019-04-26T10:35:42.065Z,"   9.63"
2019-04-26T10:36:42.001Z,"   9.51"
2019-04-26T10:37:43.894Z,"   9.34"
2019-04-26T10:38:41.979Z,"   9.58"
2019-04-26T10:39:41.979Z,"   9.59"
2019-04-26T10:40:41.990Z,"   9.48"
2019-04-26T10:41:42.000Z,"   9.46"
2019-04-26T10:42:41.970Z,"   9.58"
2019-04-26T10:43:42.132Z,"   9.48"
2019-04-26T10:44:41.982Z,"   9.46"
2019-04-26T10:45:45.393Z,"   9.49"
2019-04-26T10:46:54.826Z,"   9.69"
2019-04-26T10:47:41.975Z,"   9.79"
2019-04-26T10:48:45.588Z,"   9.62"
2019-04-26T10:49:41.956Z,"   9.66"
2019-04-26T10:50:42.122Z,"   9.76"
2019-04-26T10:51:42.847Z,"   9.66"
2019-04-26T10:52:41.955Z,"   9.43"
2019-04-26T10:53:41.938Z,"   9.25"
2019-04-26T10:54:44.606Z,"   9.42"
2019-04-26T10:55:41.962Z,"   9.47"
2019-04-26T10:56:41.940Z,"   9.52"
2019-04-26T10:57:41.943Z,"   9.59"
2019-04-26T10:58:42.837Z,"   9.62"
2019-04-26T10:59:44.049Z,"   9.64"
2019-04-26T11:00:42.039Z,"   9.58"
2019-04-26T11:01:42.133Z,"   9.88"
2019-04-26T11:02:42.014Z,"   9.79"
2019-04-26T11:03:41.980Z,"   9.62"
2019-04-26T11:04:42.871Z,"   9.81"
2019-04-26T11:05:41.985Z,"   9.76"
2019-04-26T11:06:41.985Z,"   9.70"
2019-04-26T11:07:41.981Z,"   9.69"
2019-04-26T11:08:41.933Z,"   9.59"
2019-04-26T11:09:41.978Z,"   9.72"
2019-04-26T11:10:48.430Z,"   9.92"
2019-04-26T11:11:42.109Z,"   9.86"
2019-04-26T11:12:43.484Z,"   9.83"
2019-04-26T11:13:41.957Z,"   9.84"
2019-04-26T11:14:41.922Z,"   9.71"
2019-04-26T11:15:41.912Z,"   9.80"
2019-04-26T11:16:42.326Z,"   9.61"
2019-04-26T11:17:41.916Z,"   9.58"
2019-04-26T11:18:41.922Z,"   9.48"
2019-04-26T11:19:44.044Z,"   9.66"
2019-04-26T11:20:45.497Z,"   9.62"
2019-04-26T11:21:41.936Z,"   9.56"
2019-04-26T11:22:41.957Z,"   9.51"
2019-04-26T11:23:45.365Z,"   9.80"
2019-04-26T11:24:41.886Z,"   9.61"
2019-04-26T11:25:41.897Z,"   9.57"
2019-04-26T11:26:42.002Z,"   9.63"